Astra — PB4187 — position and weather

sailwx.info

Track history (hours):
 
Tides and Currents Weather Stations Pressure Air Temp Water Temp Dewpoint Dewpoint Depression Visibility Wind Speed Wind Dir Waves Ship Positions

Astra

Last reported at 2015-Mar-01 17:32 UTC. Time now 2015-Mar-02 03:37 UTC.
Position N 50°54' E 006°59'.

Length 110 m; draft 2.4 m.

Type: Other ship. MMSI: 244650752.

Date/timePositionNaut miles runAvg speedWind from/ knotsBaromVisibWave heightAir tempDewpointWater temp
2015-Mar-01 17:32N 50°54' E 006°59'13 3.7
2015-Mar-01 14:09N 51°06' E 006°52'2 3.4
2015-Mar-01 13:33N 51°08' E 006°51'2 1.8
2015-Mar-01 12:33N 51°09' E 006°49'3 3.1
2015-Mar-01 11:33N 51°11' E 006°46'3 2.8
2015-Mar-01 10:33N 51°14' E 006°44'2 1.8
2015-Mar-01 09:33N 51°15' E 006°44'49 3.3
2015-Feb-28 18:33N 51°52' E 005°50'6 5.9
2015-Feb-28 17:33N 51°54' E 005°41'6 5.9
2015-Feb-28 16:33N 51°54' E 005°32'6 5.5
2015-Feb-28 15:34N 51°50' E 005°24'4 4.5
2015-Feb-28 14:33N 51°49' E 005°17'6 6.0
2015-Feb-28 13:34N 51°49' E 005°08'7 6.5
2015-Feb-28 12:33N 51°50' E 004°57'8 7.6
2015-Feb-28 11:34N 51°49' E 004°45'4 3.8
2015-Feb-28 10:33N 51°48' E 004°39'0 0.0
2015-Feb-28 09:33N 51°48' E 004°39'0 0.0
2015-Feb-28 08:33N 51°48' E 004°39'7 6.8
2015-Feb-28 07:33N 51°42' E 004°34'6 5.9
2015-Feb-28 06:31N 51°41' E 004°25'6 5.9
2015-Feb-28 05:32N 51°39' E 004°16'6 6.4
2015-Feb-28 04:33N 51°32' E 004°14'6 5.6
2015-Feb-28 03:33N 51°27' E 004°14'6 6.1
2015-Feb-28 02:33N 51°21' E 004°18'6 5.8
2015-Feb-28 01:33N 51°16' E 004°20'0 0.0
2015-Feb-28 00:33N 51°16' E 004°20'0 0.0
2015-Feb-27 23:33N 51°16' E 004°20'0 0.0
2015-Feb-27 22:33N 51°16' E 004°20'0 0.0
2015-Feb-27 21:33N 51°16' E 004°20'0 0.0
2015-Feb-27 20:33N 51°16' E 004°20'0 0.0
2015-Feb-27 19:33N 51°16' E 004°20'0 0.0
2015-Feb-27 18:33N 51°16' E 004°20'0 0.0
2015-Feb-27 17:33N 51°16' E 004°20'0 0.2
2015-Feb-27 16:33N 51°16' E 004°20'0 0.0
2015-Feb-27 15:33N 51°16' E 004°20'0 0.0
2015-Feb-27 14:33N 51°16' E 004°20'0 0.0
2015-Feb-27 13:33N 51°16' E 004°20'0 0.0
2015-Feb-27 12:33N 51°16' E 004°20'0 0.0
2015-Feb-27 11:33N 51°16' E 004°20'0 0.0
2015-Feb-27 10:33N 51°16' E 004°20'0 0.0
2015-Feb-27 09:33N 51°16' E 004°20'0 0.0
2015-Feb-27 08:33N 51°16' E 004°20'0 0.0
2015-Feb-27 07:33N 51°16' E 004°20'0 0.0
2015-Feb-27 06:33N 51°16' E 004°20'0 0.0
2015-Feb-27 05:33N 51°16' E 004°20'0 0.0
2015-Feb-27 04:33N 51°16' E 004°20'0 0.0
2015-Feb-27 03:33N 51°16' E 004°20'0 0.0
2015-Feb-27 02:33N 51°16' E 004°20'0 0.0
2015-Feb-27 01:33N 51°16' E 004°20'0 0.0
2015-Feb-27 00:33N 51°16' E 004°20'0 0.0
2015-Feb-26 23:33N 51°16' E 004°20'0 0.0
2015-Feb-26 22:33N 51°16' E 004°20'0 0.0
2015-Feb-26 21:33N 51°16' E 004°20'0 0.0
2015-Feb-26 20:33N 51°16' E 004°20'0 0.0
2015-Feb-26 19:33N 51°16' E 004°20'0 0.0
2015-Feb-26 18:33N 51°16' E 004°20'0 0.0
2015-Feb-26 17:33N 51°16' E 004°20'0 0.0
2015-Feb-26 16:33N 51°16' E 004°20'0 0.0
2015-Feb-26 15:33N 51°16' E 004°20'0 0.0
2015-Feb-26 14:33N 51°16' E 004°20'0 0.0
2015-Feb-26 13:33N 51°16' E 004°20'0 0.0
2015-Feb-26 12:33N 51°16' E 004°20'0 0.0
2015-Feb-26 11:33N 51°16' E 004°20'0 0.0
2015-Feb-26 10:33N 51°16' E 004°20'0 0.0
2015-Feb-26 09:33N 51°16' E 004°20'0 0.1
2015-Feb-26 08:33N 51°16' E 004°20'3 3.1
2015-Feb-26 07:34N 51°19' E 004°19'8 7.6
2015-Feb-26 06:33N 51°26' E 004°14'5 4.9
2015-Feb-26 05:33N 51°31' E 004°13'7 7.1
2015-Feb-26 04:33N 51°38' E 004°14'7 7.4
2015-Feb-26 03:33N 51°41' E 004°25'4 4.1
2015-Feb-26 02:34N 51°42' E 004°31'6 6.4
2015-Feb-26 01:33N 51°47' E 004°38'6 6.0
2015-Feb-26 00:33N 51°53' E 004°38'8 8.3
2015-Feb-25 23:33N 51°56' E 004°50'8 8.1
2015-Feb-25 22:33N 51°59' E 005°02'4 3.7
2015-Feb-25 21:33N 52°01' E 005°07'4 3.7
2015-Feb-25 20:33N 52°05' E 005°05'8 7.7
2015-Feb-25 19:33N 52°12' E 004°60'8 7.9
2015-Feb-25 18:33N 52°20' E 005°01'6 5.7
2015-Feb-25 17:34N 52°23' E 004°54'4 4.2
2015-Feb-25 16:33N 52°25' E 004°47'0 0.0
2015-Feb-25 15:33N 52°25' E 004°47'0 0.0
2015-Feb-25 14:33N 52°25' E 004°47'0 0.0
2015-Feb-25 13:33N 52°25' E 004°47'0 0.0
2015-Feb-25 12:33N 52°25' E 004°47'0 0.0
2015-Feb-25 11:33N 52°25' E 004°47'0 0.0
2015-Feb-25 10:33N 52°25' E 004°47'0 0.0
2015-Feb-25 09:33N 52°25' E 004°47'1 1.0
2015-Feb-25 08:33N 52°25' E 004°46'5 4.6
2015-Feb-25 07:33N 52°24' E 004°53'0 0.0
2015-Feb-25 06:33N 52°24' E 004°53'0 0.0
2015-Feb-25 05:33N 52°24' E 004°53'0 0.0
2015-Feb-25 04:33N 52°24' E 004°53'0 0.0
2015-Feb-25 03:33N 52°24' E 004°53'0 0.0
2015-Feb-25 02:33N 52°24' E 004°53'0 0.0
2015-Feb-25 01:33N 52°24' E 004°53'0 0.0
2015-Feb-25 00:33N 52°24' E 004°53'0 0.0
2015-Feb-24 23:33N 52°24' E 004°53'0 0.0
2015-Feb-24 22:33N 52°24' E 004°53'0 0.0
2015-Feb-24 21:33N 52°24' E 004°53'0 0.0
2015-Feb-24 20:33N 52°24' E 004°53'0 0.0
2015-Feb-24 19:33N 52°24' E 004°53'0 0.0
2015-Feb-24 18:33N 52°24' E 004°53'0 0.0
2015-Feb-24 17:33N 52°24' E 004°53'0 0.0
2015-Feb-24 16:34N 52°24' E 004°53'0 0.0
2015-Feb-24 15:33N 52°24' E 004°53'0 0.0
2015-Feb-24 14:33N 52°24' E 004°53'0 0.0
2015-Feb-24 13:33N 52°24' E 004°53'0 0.0
2015-Feb-24 12:33N 52°24' E 004°53'0 0.0
2015-Feb-24 11:33N 52°24' E 004°53'0 0.0
2015-Feb-24 10:33N 52°24' E 004°53'0 0.0
2015-Feb-24 09:33N 52°24' E 004°53'0 0.0
2015-Feb-24 08:33N 52°24' E 004°53'0 0.2
2015-Feb-24 07:34N 52°24' E 004°53'4 3.8
2015-Feb-24 06:33N 52°21' E 004°58'5 5.1
2015-Feb-24 05:33N 52°17' E 005°01'5 4.8
2015-Feb-24 04:33N 52°12' E 004°60'4 4.1
2015-Feb-24 03:33N 52°08' E 005°02'4 4.2
2015-Feb-24 02:33N 52°04' E 005°05'4 4.4
2015-Feb-24 01:33N 52°01' E 005°09'4 4.3
2015-Feb-24 00:33N 51°59' E 005°16'3 2.9
2015-Feb-23 23:33N 51°58' E 005°20'5 4.8
2015-Feb-23 22:33N 51°55' E 005°26'3 3.1
2015-Feb-23 21:33N 51°53' E 005°31'7 7.0
2015-Feb-23 20:33N 51°54' E 005°42'15 3.6
2015-Feb-23 16:30N 51°51' E 006°05'9 8.7
2015-Feb-23 15:28N 51°48' E 006°19'32 1.8
2015-Feb-22 22:10N 51°32' E 007°03'0 0.1
2015-Feb-22 21:33N 51°32' E 007°03'0 0.0
2015-Feb-22 17:24N 51°32' E 007°03'0 0.0
2015-Feb-22 16:30N 51°32' E 007°03'0 0.0
2015-Feb-22 15:32N 51°32' E 007°03'0 0.2
2015-Feb-22 14:33N 51°32' E 007°03'0 0.0
2015-Feb-22 13:30N 51°32' E 007°03'0 0.0
2015-Feb-22 12:30N 51°32' E 007°03'0 0.0
2015-Feb-22 11:33N 51°32' E 007°03'12 2.1
2015-Feb-22 05:33N 51°27' E 006°45'7 0.3
2015-Feb-21 09:21N 51°20' E 006°43'6 7.7
2015-Feb-21 08:33N 51°14' E 006°46'5 5.4
2015-Feb-21 07:33N 51°09' E 006°48'4 0.3
2015-Feb-20 18:26N 51°05' E 006°52'3 3.5
2015-Feb-20 17:33N 51°09' E 006°51'2 2.3
2015-Feb-20 16:33N 51°09' E 006°48'3 3.4
2015-Feb-20 15:33N 51°12' E 006°44'3 2.7
2015-Feb-20 14:33N 51°14' E 006°46'9 3.7
2015-Feb-20 12:14N 51°22' E 006°39'18 2.6
2015-Feb-20 05:33N 51°32' E 007°03'0 0.0
2015-Feb-20 04:33N 51°32' E 007°03'0 0.0
2015-Feb-20 03:33N 51°32' E 007°03'0 0.0
2015-Feb-20 02:33N 51°32' E 007°03'0 0.0
2015-Feb-20 01:33N 51°32' E 007°03'0 0.0
2015-Feb-20 00:33N 51°32' E 007°03'0 0.0
2015-Feb-19 23:33N 51°32' E 007°03'0 0.0
2015-Feb-19 22:33N 51°32' E 007°03'0 0.0
2015-Feb-19 21:33N 51°32' E 007°03'0 0.0
2015-Feb-19 20:33N 51°32' E 007°03'0 0.0
2015-Feb-19 19:33N 51°32' E 007°03'0 0.2
2015-Feb-19 18:33N 51°32' E 007°03'0 0.0
2015-Feb-19 17:33N 51°32' E 007°03'  
Track history (hours):
 
Tides and Currents Weather Stations Pressure Air Temp Water Temp Dewpoint Dewpoint Depression Visibility Wind Speed Wind Dir Waves Ship Positions

Astra

Last reported at 2015-Mar-01 17:32 UTC. Time now 2015-Mar-02 03:37 UTC.
Position N 50°54' E 006°59'.

Length 110 m; draft 2.4 m.

Type: Other ship. MMSI: 244650752.

Date/timePositionNaut miles runAvg speedWind from/ knotsBaromVisibWave heightAir tempDewpointWater temp
2015-Mar-01 17:32N 50°54' E 006°59'13 3.7
2015-Mar-01 14:09N 51°06' E 006°52'2 3.4
2015-Mar-01 13:33N 51°08' E 006°51'2 1.8
2015-Mar-01 12:33N 51°09' E 006°49'3 3.1
2015-Mar-01 11:33N 51°11' E 006°46'3 2.8
2015-Mar-01 10:33N 51°14' E 006°44'2 1.8
2015-Mar-01 09:33N 51°15' E 006°44'49 3.3
2015-Feb-28 18:33N 51°52' E 005°50'6 5.9
2015-Feb-28 17:33N 51°54' E 005°41'6 5.9
2015-Feb-28 16:33N 51°54' E 005°32'6 5.5
2015-Feb-28 15:34N 51°50' E 005°24'4 4.5
2015-Feb-28 14:33N 51°49' E 005°17'6 6.0
2015-Feb-28 13:34N 51°49' E 005°08'7 6.5
2015-Feb-28 12:33N 51°50' E 004°57'8 7.6
2015-Feb-28 11:34N 51°49' E 004°45'4 3.8
2015-Feb-28 10:33N 51°48' E 004°39'0 0.0
2015-Feb-28 09:33N 51°48' E 004°39'0 0.0
2015-Feb-28 08:33N 51°48' E 004°39'7 6.8
2015-Feb-28 07:33N 51°42' E 004°34'6 5.9
2015-Feb-28 06:31N 51°41' E 004°25'6 5.9
2015-Feb-28 05:32N 51°39' E 004°16'6 6.4
2015-Feb-28 04:33N 51°32' E 004°14'6 5.6
2015-Feb-28 03:33N 51°27' E 004°14'6 6.1
2015-Feb-28 02:33N 51°21' E 004°18'6 5.8
2015-Feb-28 01:33N 51°16' E 004°20'0 0.0
2015-Feb-28 00:33N 51°16' E 004°20'0 0.0
2015-Feb-27 23:33N 51°16' E 004°20'0 0.0
2015-Feb-27 22:33N 51°16' E 004°20'0 0.0
2015-Feb-27 21:33N 51°16' E 004°20'0 0.0
2015-Feb-27 20:33N 51°16' E 004°20'0 0.0
2015-Feb-27 19:33N 51°16' E 004°20'0 0.0
2015-Feb-27 18:33N 51°16' E 004°20'0 0.0
2015-Feb-27 17:33N 51°16' E 004°20'0 0.2
2015-Feb-27 16:33N 51°16' E 004°20'0 0.0
2015-Feb-27 15:33N 51°16' E 004°20'0 0.0
2015-Feb-27 14:33N 51°16' E 004°20'0 0.0
2015-Feb-27 13:33N 51°16' E 004°20'0 0.0
2015-Feb-27 12:33N 51°16' E 004°20'0 0.0
2015-Feb-27 11:33N 51°16' E 004°20'0 0.0
2015-Feb-27 10:33N 51°16' E 004°20'0 0.0
2015-Feb-27 09:33N 51°16' E 004°20'0 0.0
2015-Feb-27 08:33N 51°16' E 004°20'0 0.0
2015-Feb-27 07:33N 51°16' E 004°20'0 0.0
2015-Feb-27 06:33N 51°16' E 004°20'0 0.0
2015-Feb-27 05:33N 51°16' E 004°20'0 0.0
2015-Feb-27 04:33N 51°16' E 004°20'0 0.0
2015-Feb-27 03:33N 51°16' E 004°20'0 0.0
2015-Feb-27 02:33N 51°16' E 004°20'0 0.0
2015-Feb-27 01:33N 51°16' E 004°20'0 0.0
2015-Feb-27 00:33N 51°16' E 004°20'0 0.0
2015-Feb-26 23:33N 51°16' E 004°20'0 0.0
2015-Feb-26 22:33N 51°16' E 004°20'0 0.0
2015-Feb-26 21:33N 51°16' E 004°20'0 0.0
2015-Feb-26 20:33N 51°16' E 004°20'0 0.0
2015-Feb-26 19:33N 51°16' E 004°20'0 0.0
2015-Feb-26 18:33N 51°16' E 004°20'0 0.0
2015-Feb-26 17:33N 51°16' E 004°20'0 0.0
2015-Feb-26 16:33N 51°16' E 004°20'0 0.0
2015-Feb-26 15:33N 51°16' E 004°20'0 0.0
2015-Feb-26 14:33N 51°16' E 004°20'0 0.0
2015-Feb-26 13:33N 51°16' E 004°20'0 0.0
2015-Feb-26 12:33N 51°16' E 004°20'0 0.0
2015-Feb-26 11:33N 51°16' E 004°20'0 0.0
2015-Feb-26 10:33N 51°16' E 004°20'0 0.0
2015-Feb-26 09:33N 51°16' E 004°20'0 0.1
2015-Feb-26 08:33N 51°16' E 004°20'3 3.1
2015-Feb-26 07:34N 51°19' E 004°19'8 7.6
2015-Feb-26 06:33N 51°26' E 004°14'5 4.9
2015-Feb-26 05:33N 51°31' E 004°13'7 7.1
2015-Feb-26 04:33N 51°38' E 004°14'7 7.4
2015-Feb-26 03:33N 51°41' E 004°25'4 4.1
2015-Feb-26 02:34N 51°42' E 004°31'6 6.4
2015-Feb-26 01:33N 51°47' E 004°38'6 6.0
2015-Feb-26 00:33N 51°53' E 004°38'8 8.3
2015-Feb-25 23:33N 51°56' E 004°50'8 8.1
2015-Feb-25 22:33N 51°59' E 005°02'4 3.7
2015-Feb-25 21:33N 52°01' E 005°07'4 3.7
2015-Feb-25 20:33N 52°05' E 005°05'8 7.7
2015-Feb-25 19:33N 52°12' E 004°60'8 7.9
2015-Feb-25 18:33N 52°20' E 005°01'6 5.7
2015-Feb-25 17:34N 52°23' E 004°54'4 4.2
2015-Feb-25 16:33N 52°25' E 004°47'0 0.0
2015-Feb-25 15:33N 52°25' E 004°47'0 0.0
2015-Feb-25 14:33N 52°25' E 004°47'0 0.0
2015-Feb-25 13:33N 52°25' E 004°47'0 0.0
2015-Feb-25 12:33N 52°25' E 004°47'0 0.0
2015-Feb-25 11:33N 52°25' E 004°47'0 0.0
2015-Feb-25 10:33N 52°25' E 004°47'0 0.0
2015-Feb-25 09:33N 52°25' E 004°47'1 1.0
2015-Feb-25 08:33N 52°25' E 004°46'5 4.6
2015-Feb-25 07:33N 52°24' E 004°53'0 0.0
2015-Feb-25 06:33N 52°24' E 004°53'0 0.0
2015-Feb-25 05:33N 52°24' E 004°53'0 0.0
2015-Feb-25 04:33N 52°24' E 004°53'0 0.0
2015-Feb-25 03:33N 52°24' E 004°53'0 0.0
2015-Feb-25 02:33N 52°24' E 004°53'0 0.0
2015-Feb-25 01:33N 52°24' E 004°53'0 0.0
2015-Feb-25 00:33N 52°24' E 004°53'0 0.0
2015-Feb-24 23:33N 52°24' E 004°53'0 0.0
2015-Feb-24 22:33N 52°24' E 004°53'0 0.0
2015-Feb-24 21:33N 52°24' E 004°53'0 0.0
2015-Feb-24 20:33N 52°24' E 004°53'0 0.0
2015-Feb-24 19:33N 52°24' E 004°53'0 0.0
2015-Feb-24 18:33N 52°24' E 004°53'0 0.0
2015-Feb-24 17:33N 52°24' E 004°53'0 0.0
2015-Feb-24 16:34N 52°24' E 004°53'0 0.0
2015-Feb-24 15:33N 52°24' E 004°53'0 0.0
2015-Feb-24 14:33N 52°24' E 004°53'0 0.0
2015-Feb-24 13:33N 52°24' E 004°53'0 0.0
2015-Feb-24 12:33N 52°24' E 004°53'0 0.0
2015-Feb-24 11:33N 52°24' E 004°53'0 0.0
2015-Feb-24 10:33N 52°24' E 004°53'0 0.0
2015-Feb-24 09:33N 52°24' E 004°53'0 0.0
2015-Feb-24 08:33N 52°24' E 004°53'0 0.2
2015-Feb-24 07:34N 52°24' E 004°53'4 3.8
2015-Feb-24 06:33N 52°21' E 004°58'5 5.1
2015-Feb-24 05:33N 52°17' E 005°01'5 4.8
2015-Feb-24 04:33N 52°12' E 004°60'4 4.1
2015-Feb-24 03:33N 52°08' E 005°02'4 4.2
2015-Feb-24 02:33N 52°04' E 005°05'4 4.4
2015-Feb-24 01:33N 52°01' E 005°09'4 4.3
2015-Feb-24 00:33N 51°59' E 005°16'3 2.9
2015-Feb-23 23:33N 51°58' E 005°20'5 4.8
2015-Feb-23 22:33N 51°55' E 005°26'3 3.1
2015-Feb-23 21:33N 51°53' E 005°31'7 7.0
2015-Feb-23 20:33N 51°54' E 005°42'15 3.6
2015-Feb-23 16:30N 51°51' E 006°05'9 8.7
2015-Feb-23 15:28N 51°48' E 006°19'32 1.8
2015-Feb-22 22:10N 51°32' E 007°03'0 0.1
2015-Feb-22 21:33N 51°32' E 007°03'0 0.0
2015-Feb-22 17:24N 51°32' E 007°03'0 0.0
2015-Feb-22 16:30N 51°32' E 007°03'0 0.0
2015-Feb-22 15:32N 51°32' E 007°03'0 0.2
2015-Feb-22 14:33N 51°32' E 007°03'0 0.0
2015-Feb-22 13:30N 51°32' E 007°03'0 0.0
2015-Feb-22 12:30N 51°32' E 007°03'0 0.0
2015-Feb-22 11:33N 51°32' E 007°03'12 2.1
2015-Feb-22 05:33N 51°27' E 006°45'7 0.3
2015-Feb-21 09:21N 51°20' E 006°43'6 7.7
2015-Feb-21 08:33N 51°14' E 006°46'5 5.4
2015-Feb-21 07:33N 51°09' E 006°48'4 0.3
2015-Feb-20 18:26N 51°05' E 006°52'3 3.5
2015-Feb-20 17:33N 51°09' E 006°51'2 2.3
2015-Feb-20 16:33N 51°09' E 006°48'3 3.4
2015-Feb-20 15:33N 51°12' E 006°44'3 2.7
2015-Feb-20 14:33N 51°14' E 006°46'9 3.7
2015-Feb-20 12:14N 51°22' E 006°39'18 2.6
2015-Feb-20 05:33N 51°32' E 007°03'0 0.0
2015-Feb-20 04:33N 51°32' E 007°03'0 0.0
2015-Feb-20 03:33N 51°32' E 007°03'0 0.0
2015-Feb-20 02:33N 51°32' E 007°03'0 0.0
2015-Feb-20 01:33N 51°32' E 007°03'0 0.0
2015-Feb-20 00:33N 51°32' E 007°03'0 0.0
2015-Feb-19 23:33N 51°32' E 007°03'0 0.0
2015-Feb-19 22:33N 51°32' E 007°03'0 0.0
2015-Feb-19 21:33N 51°32' E 007°03'0 0.0
2015-Feb-19 20:33N 51°32' E 007°03'0 0.0
2015-Feb-19 19:33N 51°32' E 007°03'0 0.2
2015-Feb-19 18:33N 51°32' E 007°03'0 0.0
2015-Feb-19 17:33N 51°32' E 007°03'  

Dump ship's entire track history